Pagrindinis puslapis
METAR-TAF:

METAR-TAF

Oro uostai :

Deadhorse, Aliaska, Jungtinės Amerikos Valstijos

platuma: 70-20N, ilguma: 150-56W, Aukštis: 5 m

Dabartinis oras

Ataskaita buvo paskelbta 56 minutes, ne 20:55 UTC
Vėjas 7 kt iš Šiaurės/Šiaurės Rytų
Temperatūra 3°C
Drėgmė 93%
Slėgis 999 hPa
Su prošvaistėmis ne aukštis 200 ft
Apsiniaukę ne aukštis 800 ft
rūkana

METAR: PALP 212055Z 03007KT BR BKN002 OVC008 03/02 A2949

Laikas: 13:51 (21:51 UTC)


TAF: trūkstamas

Orai ataskaitas ir orų prognozės (METAR, TAF).

turimą stotys yra geltonos ir raudonos taškus žemėlapyje.

Perkelti pele per norėdami pamatyti stoties vardą.

Tada spustelėkite, norėdami matyti oro stebėjimo ir prognozės.

Norėdami pakeisti žemėlapį: spustelėkite ant žalios mygtukų su juodo kryžiaus žemyn,; žalią mygtuką su brūkšneliu, jei norite nutolinti; arba žalių rodyklių gretimoms žemėlapius.


METAR-TAF: